sensor_id;sensor_type;location;lat;lon;timestamp;temperature;humidity
26595;DHT22;14238;49.496;8.154;2022-08-18T00:01:42;21.20;99.90
26595;DHT22;14238;49.496;8.154;2022-08-18T00:04:09;21.20;99.90
26595;DHT22;14238;49.496;8.154;2022-08-18T00:06:35;21.20;99.90
26595;DHT22;14238;49.496;8.154;2022-08-18T00:09:05;21.20;99.90
26595;DHT22;14238;49.496;8.154;2022-08-18T00:11:34;21.20;99.90
26595;DHT22;14238;49.496;8.154;2022-08-18T00:14:00;21.40;99.90
26595;DHT22;14238;49.496;8.154;2022-08-18T00:16:26;21.40;99.90
26595;DHT22;14238;49.496;8.154;2022-08-18T00:18:52;21.40;99.90
26595;DHT22;14238;49.496;8.154;2022-08-18T00:21:18;21.50;99.90
26595;DHT22;14238;49.496;8.154;2022-08-18T00:23:43;21.60;99.90
26595;DHT22;14238;49.496;8.154;2022-08-18T00:26:09;21.60;99.90
26595;DHT22;14238;49.496;8.154;2022-08-18T00:28:34;21.50;99.90
26595;DHT22;14238;49.496;8.154;2022-08-18T00:31:00;21.50;99.90
26595;DHT22;14238;49.496;8.154;2022-08-18T00:33:26;21.50;99.90
26595;DHT22;14238;49.496;8.154;2022-08-18T00:35:51;21.70;99.90
26595;DHT22;14238;49.496;8.154;2022-08-18T00:38:17;21.80;99.90
26595;DHT22;14238;49.496;8.154;2022-08-18T00:40:46;21.70;99.90
26595;DHT22;14238;49.496;8.154;2022-08-18T00:43:16;21.40;99.90
26595;DHT22;14238;49.496;8.154;2022-08-18T00:45:44;21.30;99.90
26595;DHT22;14238;49.496;8.154;2022-08-18T00:48:12;21.20;99.90
26595;DHT22;14238;49.496;8.154;2022-08-18T00:56:12;21.00;99.90
26595;DHT22;14238;49.496;8.154;2022-08-18T00:58:49;20.90;99.90
26595;DHT22;14238;49.496;8.154;2022-08-18T01:01:18;20.80;99.90
26595;DHT22;14238;49.496;8.154;2022-08-18T01:03:46;20.70;99.90
26595;DHT22;14238;49.496;8.154;2022-08-18T01:06:26;20.70;99.90
26595;DHT22;14238;49.496;8.154;2022-08-18T01:08:53;20.60;99.90
26595;DHT22;14238;49.496;8.154;2022-08-18T01:11:19;20.60;99.90
26595;DHT22;14238;49.496;8.154;2022-08-18T01:13:44;20.60;99.90
26595;DHT22;14238;49.496;8.154;2022-08-18T01:16:10;20.50;99.90
26595;DHT22;14238;49.496;8.154;2022-08-18T01:18:54;20.60;99.90
26595;DHT22;14238;49.496;8.154;2022-08-18T01:21:45;20.60;99.90
26595;DHT22;14238;49.496;8.154;2022-08-18T01:24:36;20.60;99.90
26595;DHT22;14238;49.496;8.154;2022-08-18T01:27:21;20.50;99.90
26595;DHT22;14238;49.496;8.154;2022-08-18T01:29:49;20.50;99.90
26595;DHT22;14238;49.496;8.154;2022-08-18T01:32:21;20.40;99.90
26595;DHT22;14238;49.496;8.154;2022-08-18T01:34:48;20.30;99.90
26595;DHT22;14238;49.496;8.154;2022-08-18T01:37:21;20.20;99.90
26595;DHT22;14238;49.496;8.154;2022-08-18T01:39:47;20.20;99.90
26595;DHT22;14238;49.496;8.154;2022-08-18T01:42:14;20.00;99.90
26595;DHT22;14238;49.496;8.154;2022-08-18T01:44:41;20.10;99.90
26595;DHT22;14238;49.496;8.154;2022-08-18T01:47:08;20.10;99.90
26595;DHT22;14238;49.496;8.154;2022-08-18T01:49:35;20.10;99.90
26595;DHT22;14238;49.496;8.154;2022-08-18T01:52:01;20.20;99.90
26595;DHT22;14238;49.496;8.154;2022-08-18T01:54:28;20.20;99.90
26595;DHT22;14238;49.496;8.154;2022-08-18T01:56:55;20.10;99.90
26595;DHT22;14238;49.496;8.154;2022-08-18T01:59:20;20.10;99.90
26595;DHT22;14238;49.496;8.154;2022-08-18T02:01:46;20.10;99.90
26595;DHT22;14238;49.496;8.154;2022-08-18T02:04:14;20.00;99.90
26595;DHT22;14238;49.496;8.154;2022-08-18T02:06:41;20.00;99.90
26595;DHT22;14238;49.496;8.154;2022-08-18T02:09:06;20.00;99.90
26595;DHT22;14238;49.496;8.154;2022-08-18T02:11:32;20.00;99.90
26595;DHT22;14238;49.496;8.154;2022-08-18T02:13:57;20.00;99.90
26595;DHT22;14238;49.496;8.154;2022-08-18T02:16:23;19.90;99.90
26595;DHT22;14238;49.496;8.154;2022-08-18T02:18:48;20.00;99.90
26595;DHT22;14238;49.496;8.154;2022-08-18T02:21:18;19.90;99.90
26595;DHT22;14238;49.496;8.154;2022-08-18T02:23:44;20.00;99.90
26595;DHT22;14238;49.496;8.154;2022-08-18T02:26:13;20.00;99.90
26595;DHT22;14238;49.496;8.154;2022-08-18T02:28:39;19.90;99.90
26595;DHT22;14238;49.496;8.154;2022-08-18T02:31:11;19.90;99.90
26595;DHT22;14238;49.496;8.154;2022-08-18T02:33:37;20.00;99.90
26595;DHT22;14238;49.496;8.154;2022-08-18T02:36:03;20.00;99.90
26595;DHT22;14238;49.496;8.154;2022-08-18T02:38:29;19.80;99.90
26595;DHT22;14238;49.496;8.154;2022-08-18T02:41:00;19.80;99.90
26595;DHT22;14238;49.496;8.154;2022-08-18T02:43:26;19.80;99.90
26595;DHT22;14238;49.496;8.154;2022-08-18T02:45:52;19.80;99.90
26595;DHT22;14238;49.496;8.154;2022-08-18T02:48:19;19.70;99.90
26595;DHT22;14238;49.496;8.154;2022-08-18T02:51:05;19.90;99.90
26595;DHT22;14238;49.496;8.154;2022-08-18T02:53:31;19.70;99.90
26595;DHT22;14238;49.496;8.154;2022-08-18T02:56:12;19.60;99.90
26595;DHT22;14238;49.496;8.154;2022-08-18T02:58:44;19.70;99.90
26595;DHT22;14238;49.496;8.154;2022-08-18T03:01:09;19.70;99.90
26595;DHT22;14238;49.496;8.154;2022-08-18T03:03:35;19.70;99.90
26595;DHT22;14238;49.496;8.154;2022-08-18T03:06:01;19.80;99.90
26595;DHT22;14238;49.496;8.154;2022-08-18T03:08:26;19.60;99.90
26595;DHT22;14238;49.496;8.154;2022-08-18T03:10:52;19.60;99.90
26595;DHT22;14238;49.496;8.154;2022-08-18T03:13:18;19.50;99.90
26595;DHT22;14238;49.496;8.154;2022-08-18T03:15:43;19.60;99.90
26595;DHT22;14238;49.496;8.154;2022-08-18T03:18:09;19.70;99.90
26595;DHT22;14238;49.496;8.154;2022-08-18T03:20:36;19.60;99.90
26595;DHT22;14238;49.496;8.154;2022-08-18T03:23:03;19.50;99.90
26595;DHT22;14238;49.496;8.154;2022-08-18T03:25:30;19.50;99.90
26595;DHT22;14238;49.496;8.154;2022-08-18T03:27:55;19.40;99.90
26595;DHT22;14238;49.496;8.154;2022-08-18T03:30:21;19.50;99.90
26595;DHT22;14238;49.496;8.154;2022-08-18T03:32:48;19.40;99.90
26595;DHT22;14238;49.496;8.154;2022-08-18T03:35:14;19.40;99.90
26595;DHT22;14238;49.496;8.154;2022-08-18T03:37:41;19.50;99.90
26595;DHT22;14238;49.496;8.154;2022-08-18T03:40:06;19.40;99.90
26595;DHT22;14238;49.496;8.154;2022-08-18T03:42:32;19.40;99.90
26595;DHT22;14238;49.496;8.154;2022-08-18T03:44:58;19.30;99.90
26595;DHT22;14238;49.496;8.154;2022-08-18T03:47:23;19.20;99.90
26595;DHT22;14238;49.496;8.154;2022-08-18T03:49:49;19.40;99.90
26595;DHT22;14238;49.496;8.154;2022-08-18T03:52:14;19.30;99.90
26595;DHT22;14238;49.496;8.154;2022-08-18T03:54:40;19.40;99.90
26595;DHT22;14238;49.496;8.154;2022-08-18T03:57:09;19.50;99.90
26595;DHT22;14238;49.496;8.154;2022-08-18T03:59:36;19.40;99.90
26595;DHT22;14238;49.496;8.154;2022-08-18T04:02:03;19.50;99.90
26595;DHT22;14238;49.496;8.154;2022-08-18T04:04:29;19.50;99.90
26595;DHT22;14238;49.496;8.154;2022-08-18T04:06:59;19.50;99.90
26595;DHT22;14238;49.496;8.154;2022-08-18T04:09:27;19.50;99.90
26595;DHT22;14238;49.496;8.154;2022-08-18T04:11:53;19.30;99.90
26595;DHT22;14238;49.496;8.154;2022-08-18T04:14:21;19.40;99.90
26595;DHT22;14238;49.496;8.154;2022-08-18T04:16:49;19.40;99.90
26595;DHT22;14238;49.496;8.154;2022-08-18T04:19:15;19.50;99.90
26595;DHT22;14238;49.496;8.154;2022-08-18T04:21:43;19.30;99.90
26595;DHT22;14238;49.496;8.154;2022-08-18T04:24:10;19.30;99.90
26595;DHT22;14238;49.496;8.154;2022-08-18T04:26:40;19.30;99.90
26595;DHT22;14238;49.496;8.154;2022-08-18T04:29:06;19.30;99.90
26595;DHT22;14238;49.496;8.154;2022-08-18T04:31:32;19.30;99.90
26595;DHT22;14238;49.496;8.154;2022-08-18T04:33:59;19.30;99.90
26595;DHT22;14238;49.496;8.154;2022-08-18T04:36:25;19.10;99.90
26595;DHT22;14238;49.496;8.154;2022-08-18T04:38:52;19.20;99.90
26595;DHT22;14238;49.496;8.154;2022-08-18T04:41:18;19.10;99.90
26595;DHT22;14238;49.496;8.154;2022-08-18T04:43:44;19.10;99.90
26595;DHT22;14238;49.496;8.154;2022-08-18T04:46:12;19.20;99.90
26595;DHT22;14238;49.496;8.154;2022-08-18T04:48:39;19.10;99.90
26595;DHT22;14238;49.496;8.154;2022-08-18T04:51:15;19.10;99.90
26595;DHT22;14238;49.496;8.154;2022-08-18T04:53:41;19.20;99.90
26595;DHT22;14238;49.496;8.154;2022-08-18T04:56:26;19.30;99.90
26595;DHT22;14238;49.496;8.154;2022-08-18T04:59:01;19.40;99.90
26595;DHT22;14238;49.496;8.154;2022-08-18T05:01:30;19.50;99.90
26595;DHT22;14238;49.496;8.154;2022-08-18T05:03:57;19.50;99.90
26595;DHT22;14238;49.496;8.154;2022-08-18T05:06:27;19.50;99.90
26595;DHT22;14238;49.496;8.154;2022-08-18T05:08:55;19.50;99.90
26595;DHT22;14238;49.496;8.154;2022-08-18T05:11:22;19.40;99.90
26595;DHT22;14238;49.496;8.154;2022-08-18T05:13:49;19.40;99.90
26595;DHT22;14238;49.496;8.154;2022-08-18T05:16:16;19.40;99.90
26595;DHT22;14238;49.496;8.154;2022-08-18T05:18:42;19.30;99.90
26595;DHT22;14238;49.496;8.154;2022-08-18T05:21:08;19.20;99.90
26595;DHT22;14238;49.496;8.154;2022-08-18T05:23:40;19.10;99.90
26595;DHT22;14238;49.496;8.154;2022-08-18T05:26:06;19.10;99.90
26595;DHT22;14238;49.496;8.154;2022-08-18T05:28:33;19.10;99.90
26595;DHT22;14238;49.496;8.154;2022-08-18T05:31:18;19.10;99.90
26595;DHT22;14238;49.496;8.154;2022-08-18T05:33:45;19.10;99.90
26595;DHT22;14238;49.496;8.154;2022-08-18T05:39:09;19.00;99.90
26595;DHT22;14238;49.496;8.154;2022-08-18T05:41:39;19.00;99.90
26595;DHT22;14238;49.496;8.154;2022-08-18T05:44:08;19.10;99.90
26595;DHT22;14238;49.496;8.154;2022-08-18T05:46:43;19.10;99.90
26595;DHT22;14238;49.496;8.154;2022-08-18T05:49:12;19.10;99.90
26595;DHT22;14238;49.496;8.154;2022-08-18T05:51:45;19.10;99.90
26595;DHT22;14238;49.496;8.154;2022-08-18T05:54:12;19.00;99.90
26595;DHT22;14238;49.496;8.154;2022-08-18T05:57:01;19.00;99.90
26595;DHT22;14238;49.496;8.154;2022-08-18T05:59:36;19.00;99.90
26595;DHT22;14238;49.496;8.154;2022-08-18T06:02:19;18.90;99.90
26595;DHT22;14238;49.496;8.154;2022-08-18T06:09:55;18.80;99.90
26595;DHT22;14238;49.496;8.154;2022-08-18T06:12:32;18.70;99.90
26595;DHT22;14238;49.496;8.154;2022-08-18T06:18:11;18.70;99.90
26595;DHT22;14238;49.496;8.154;2022-08-18T06:26:22;18.70;99.90
26595;DHT22;14238;49.496;8.154;2022-08-18T06:29:17;18.80;99.90
26595;DHT22;14238;49.496;8.154;2022-08-18T06:34:32;18.80;99.90
26595;DHT22;14238;49.496;8.154;2022-08-18T06:37:26;18.80;99.90
26595;DHT22;14238;49.496;8.154;2022-08-18T06:39:54;18.70;99.90
26595;DHT22;14238;49.496;8.154;2022-08-18T06:42:24;18.80;99.90
26595;DHT22;14238;49.496;8.154;2022-08-18T06:45:09;18.70;99.90
26595;DHT22;14238;49.496;8.154;2022-08-18T06:47:50;18.70;99.90
26595;DHT22;14238;49.496;8.154;2022-08-18T06:50:22;18.60;99.90
26595;DHT22;14238;49.496;8.154;2022-08-18T06:53:04;18.60;99.90
26595;DHT22;14238;49.496;8.154;2022-08-18T06:58:01;18.50;99.90
26595;DHT22;14238;49.496;8.154;2022-08-18T07:00:29;18.50;99.90
26595;DHT22;14238;49.496;8.154;2022-08-18T07:05:31;18.50;99.90
26595;DHT22;14238;49.496;8.154;2022-08-18T07:08:21;18.50;99.90
26595;DHT22;14238;49.496;8.154;2022-08-18T07:10:53;18.50;99.90
26595;DHT22;14238;49.496;8.154;2022-08-18T07:13:25;18.50;99.90
26595;DHT22;14238;49.496;8.154;2022-08-18T07:15:54;18.50;99.90
26595;DHT22;14238;49.496;8.154;2022-08-18T07:18:26;18.50;99.90
26595;DHT22;14238;49.496;8.154;2022-08-18T07:21:01;18.50;99.90
26595;DHT22;14238;49.496;8.154;2022-08-18T07:26:28;18.50;99.90
26595;DHT22;14238;49.496;8.154;2022-08-18T07:28:53;18.60;99.90
26595;DHT22;14238;49.496;8.154;2022-08-18T07:31:31;18.70;99.90
26595;DHT22;14238;49.496;8.154;2022-08-18T07:34:07;18.80;99.90
26595;DHT22;14238;49.496;8.154;2022-08-18T07:37:07;19.00;99.90
26595;DHT22;14238;49.496;8.154;2022-08-18T07:39:42;19.10;99.90
26595;DHT22;14238;49.496;8.154;2022-08-18T07:42:19;19.20;99.90
26595;DHT22;14238;49.496;8.154;2022-08-18T07:45:16;19.30;99.90
26595;DHT22;14238;49.496;8.154;2022-08-18T07:48:06;19.40;99.90
26595;DHT22;14238;49.496;8.154;2022-08-18T07:53:51;19.50;99.90
26595;DHT22;14238;49.496;8.154;2022-08-18T07:59:10;19.60;99.90
26595;DHT22;14238;49.496;8.154;2022-08-18T08:01:48;19.70;99.90
26595;DHT22;14238;49.496;8.154;2022-08-18T08:07:14;19.90;99.90
26595;DHT22;14238;49.496;8.154;2022-08-18T08:12:39;19.90;99.90
26595;DHT22;14238;49.496;8.154;2022-08-18T08:15:15;20.10;99.90
26595;DHT22;14238;49.496;8.154;2022-08-18T08:20:28;20.20;99.90
26595;DHT22;14238;49.496;8.154;2022-08-18T08:26:01;20.30;99.90
26595;DHT22;14238;49.496;8.154;2022-08-18T08:29:10;20.30;99.90
26595;DHT22;14238;49.496;8.154;2022-08-18T08:31:49;20.20;99.90
26595;DHT22;14238;49.496;8.154;2022-08-18T08:37:11;20.20;99.90
26595;DHT22;14238;49.496;8.154;2022-08-18T08:40:04;20.20;99.90
26595;DHT22;14238;49.496;8.154;2022-08-18T08:42:40;20.20;99.90
26595;DHT22;14238;49.496;8.154;2022-08-18T08:45:15;20.30;99.90
26595;DHT22;14238;49.496;8.154;2022-08-18T08:50:34;20.40;99.90
26595;DHT22;14238;49.496;8.154;2022-08-18T08:53:05;20.60;99.90
26595;DHT22;14238;49.496;8.154;2022-08-18T08:55:35;20.60;99.90
26595;DHT22;14238;49.496;8.154;2022-08-18T08:58:21;20.40;99.90
26595;DHT22;14238;49.496;8.154;2022-08-18T09:00:49;20.40;99.90
26595;DHT22;14238;49.496;8.154;2022-08-18T09:03:42;20.40;99.90
26595;DHT22;14238;49.496;8.154;2022-08-18T09:06:25;20.30;99.90
26595;DHT22;14238;49.496;8.154;2022-08-18T09:12:21;20.10;99.90
26595;DHT22;14238;49.496;8.154;2022-08-18T09:23:33;20.10;99.90
26595;DHT22;14238;49.496;8.154;2022-08-18T09:26:26;20.10;99.90
26595;DHT22;14238;49.496;8.154;2022-08-18T09:29:24;20.10;99.90
26595;DHT22;14238;49.496;8.154;2022-08-18T09:37:26;20.40;99.90
26595;DHT22;14238;49.496;8.154;2022-08-18T09:46:56;20.90;99.90
26595;DHT22;14238;49.496;8.154;2022-08-18T09:51:47;21.20;99.90
26595;DHT22;14238;49.496;8.154;2022-08-18T09:54:14;21.30;99.90
26595;DHT22;14238;49.496;8.154;2022-08-18T10:02:10;21.10;99.90
26595;DHT22;14238;49.496;8.154;2022-08-18T10:04:41;21.10;99.90
26595;DHT22;14238;49.496;8.154;2022-08-18T10:07:28;21.00;99.90
26595;DHT22;14238;49.496;8.154;2022-08-18T10:10:18;20.90;99.90
26595;DHT22;14238;49.496;8.154;2022-08-18T10:13:06;20.80;99.90
26595;DHT22;14238;49.496;8.154;2022-08-18T10:15:50;20.70;99.90
26595;DHT22;14238;49.496;8.154;2022-08-18T10:18:50;20.60;99.90
26595;DHT22;14238;49.496;8.154;2022-08-18T10:21:23;20.50;99.90
26595;DHT22;14238;49.496;8.154;2022-08-18T10:29:00;20.60;99.90
26595;DHT22;14238;49.496;8.154;2022-08-18T10:31:29;20.60;99.90
26595;DHT22;14238;49.496;8.154;2022-08-18T10:34:09;20.60;99.90
26595;DHT22;14238;49.496;8.154;2022-08-18T10:39:20;20.70;99.90
26595;DHT22;14238;49.496;8.154;2022-08-18T10:42:05;20.70;99.90
26595;DHT22;14238;49.496;8.154;2022-08-18T10:44:46;20.80;99.90
26595;DHT22;14238;49.496;8.154;2022-08-18T10:47:25;20.70;99.90
26595;DHT22;14238;49.496;8.154;2022-08-18T10:49:51;20.70;99.90
26595;DHT22;14238;49.496;8.154;2022-08-18T10:52:29;20.70;99.90
26595;DHT22;14238;49.496;8.154;2022-08-18T10:55:03;20.70;99.90
26595;DHT22;14238;49.496;8.154;2022-08-18T11:06:23;21.30;99.90
26595;DHT22;14238;49.496;8.154;2022-08-18T11:08:56;21.70;99.90
26595;DHT22;14238;49.496;8.154;2022-08-18T11:11:34;22.00;99.90
26595;DHT22;14238;49.496;8.154;2022-08-18T11:19:25;22.00;99.90
26595;DHT22;14238;49.496;8.154;2022-08-18T11:21:51;21.80;99.90
26595;DHT22;14238;49.496;8.154;2022-08-18T11:24:29;21.60;99.90
26595;DHT22;14238;49.496;8.154;2022-08-18T11:27:02;21.60;99.90
26595;DHT22;14238;49.496;8.154;2022-08-18T11:29:37;21.60;99.90
26595;DHT22;14238;49.496;8.154;2022-08-18T11:32:33;21.70;99.90
26595;DHT22;14238;49.496;8.154;2022-08-18T11:35:18;21.90;99.90
26595;DHT22;14238;49.496;8.154;2022-08-18T11:37:47;21.90;99.90
26595;DHT22;14238;49.496;8.154;2022-08-18T11:43:05;21.70;99.90
26595;DHT22;14238;49.496;8.154;2022-08-18T12:04:13;22.00;99.90
26595;DHT22;14238;49.496;8.154;2022-08-18T12:09:17;22.40;99.90
26595;DHT22;14238;49.496;8.154;2022-08-18T12:11:53;22.50;99.90
26595;DHT22;14238;49.496;8.154;2022-08-18T12:14:22;22.60;99.90
26595;DHT22;14238;49.496;8.154;2022-08-18T12:16:49;22.60;99.90
26595;DHT22;14238;49.496;8.154;2022-08-18T12:19:15;22.40;99.90
26595;DHT22;14238;49.496;8.154;2022-08-18T12:21:44;22.30;99.90
26595;DHT22;14238;49.496;8.154;2022-08-18T12:24:37;22.30;99.90
26595;DHT22;14238;49.496;8.154;2022-08-18T12:27:03;22.20;99.90
26595;DHT22;14238;49.496;8.154;2022-08-18T12:29:28;22.20;99.90
26595;DHT22;14238;49.496;8.154;2022-08-18T12:31:54;22.20;99.90
26595;DHT22;14238;49.496;8.154;2022-08-18T12:34:22;22.40;99.90
26595;DHT22;14238;49.496;8.154;2022-08-18T12:36:53;22.40;99.90
26595;DHT22;14238;49.496;8.154;2022-08-18T12:39:19;22.50;99.90
26595;DHT22;14238;49.496;8.154;2022-08-18T12:41:45;22.50;99.90
26595;DHT22;14238;49.496;8.154;2022-08-18T12:44:11;22.50;99.90
26595;DHT22;14238;49.496;8.154;2022-08-18T12:46:37;22.70;99.90
26595;DHT22;14238;49.496;8.154;2022-08-18T12:49:04;22.90;99.90
26595;DHT22;14238;49.496;8.154;2022-08-18T12:51:30;23.00;99.90
26595;DHT22;14238;49.496;8.154;2022-08-18T12:53:56;23.30;99.90
26595;DHT22;14238;49.496;8.154;2022-08-18T12:56:24;23.50;99.90
26595;DHT22;14238;49.496;8.154;2022-08-18T12:58:50;23.60;99.90
26595;DHT22;14238;49.496;8.154;2022-08-18T13:01:17;23.70;99.90
26595;DHT22;14238;49.496;8.154;2022-08-18T13:03:45;23.60;99.90
26595;DHT22;14238;49.496;8.154;2022-08-18T13:06:12;23.60;99.90
26595;DHT22;14238;49.496;8.154;2022-08-18T13:08:38;23.90;99.90
26595;DHT22;14238;49.496;8.154;2022-08-18T13:11:04;24.10;99.90
26595;DHT22;14238;49.496;8.154;2022-08-18T13:13:35;24.40;99.90
26595;DHT22;14238;49.496;8.154;2022-08-18T13:16:01;24.60;99.90
26595;DHT22;14238;49.496;8.154;2022-08-18T13:18:27;24.90;99.90
26595;DHT22;14238;49.496;8.154;2022-08-18T13:20:53;25.40;99.90
26595;DHT22;14238;49.496;8.154;2022-08-18T13:23:18;25.90;99.90
26595;DHT22;14238;49.496;8.154;2022-08-18T13:25:44;25.80;99.90
26595;DHT22;14238;49.496;8.154;2022-08-18T13:28:09;26.50;99.90
26595;DHT22;14238;49.496;8.154;2022-08-18T13:30:35;26.50;99.90
26595;DHT22;14238;49.496;8.154;2022-08-18T13:33:01;26.60;99.90
26595;DHT22;14238;49.496;8.154;2022-08-18T13:35:28;26.80;99.90
26595;DHT22;14238;49.496;8.154;2022-08-18T13:37:54;26.50;99.90
26595;DHT22;14238;49.496;8.154;2022-08-18T13:40:21;26.30;99.90
26595;DHT22;14238;49.496;8.154;2022-08-18T13:42:47;26.30;99.90
26595;DHT22;14238;49.496;8.154;2022-08-18T13:45:20;26.80;99.90
26595;DHT22;14238;49.496;8.154;2022-08-18T13:47:47;27.00;99.90
26595;DHT22;14238;49.496;8.154;2022-08-18T13:50:13;26.80;99.90
26595;DHT22;14238;49.496;8.154;2022-08-18T13:52:40;26.70;99.90
26595;DHT22;14238;49.496;8.154;2022-08-18T13:55:13;26.90;99.90
26595;DHT22;14238;49.496;8.154;2022-08-18T13:57:40;26.50;99.90
26595;DHT22;14238;49.496;8.154;2022-08-18T14:00:13;26.60;99.90
26595;DHT22;14238;49.496;8.154;2022-08-18T14:02:40;27.00;99.90
26595;DHT22;14238;49.496;8.154;2022-08-18T14:05:06;26.90;99.90
26595;DHT22;14238;49.496;8.154;2022-08-18T14:07:34;26.90;99.90
26595;DHT22;14238;49.496;8.154;2022-08-18T14:10:00;26.60;99.90
26595;DHT22;14238;49.496;8.154;2022-08-18T14:12:26;26.30;99.90
26595;DHT22;14238;49.496;8.154;2022-08-18T14:14:52;26.70;99.90
26595;DHT22;14238;49.496;8.154;2022-08-18T14:17:20;26.40;99.90
26595;DHT22;14238;49.496;8.154;2022-08-18T14:19:45;26.30;99.90
26595;DHT22;14238;49.496;8.154;2022-08-18T14:22:30;25.90;99.90
26595;DHT22;14238;49.496;8.154;2022-08-18T14:25:14;26.00;99.90
26595;DHT22;14238;49.496;8.154;2022-08-18T14:27:58;25.50;99.90
26595;DHT22;14238;49.496;8.154;2022-08-18T14:30:24;25.40;99.90
26595;DHT22;14238;49.496;8.154;2022-08-18T14:32:50;25.40;99.90
26595;DHT22;14238;49.496;8.154;2022-08-18T14:35:18;25.20;99.90
26595;DHT22;14238;49.496;8.154;2022-08-18T14:37:44;25.20;99.90
26595;DHT22;14238;49.496;8.154;2022-08-18T14:40:10;25.20;99.90
26595;DHT22;14238;49.496;8.154;2022-08-18T14:42:36;25.00;99.90
26595;DHT22;14238;49.496;8.154;2022-08-18T14:45:03;25.10;99.90
26595;DHT22;14238;49.496;8.154;2022-08-18T14:47:31;25.10;99.90
26595;DHT22;14238;49.496;8.154;2022-08-18T14:49:57;25.10;99.90
26595;DHT22;14238;49.496;8.154;2022-08-18T14:52:23;24.90;99.90
26595;DHT22;14238;49.496;8.154;2022-08-18T14:54:50;24.80;99.90
26595;DHT22;14238;49.496;8.154;2022-08-18T14:57:15;24.80;99.90
26595;DHT22;14238;49.496;8.154;2022-08-18T14:59:41;24.60;99.90
26595;DHT22;14238;49.496;8.154;2022-08-18T15:02:10;24.80;99.90
26595;DHT22;14238;49.496;8.154;2022-08-18T15:04:37;24.80;99.90
26595;DHT22;14238;49.496;8.154;2022-08-18T15:07:02;24.90;99.90
26595;DHT22;14238;49.496;8.154;2022-08-18T15:09:28;24.90;99.90
26595;DHT22;14238;49.496;8.154;2022-08-18T15:11:56;24.80;99.90
26595;DHT22;14238;49.496;8.154;2022-08-18T15:14:28;24.70;99.90
26595;DHT22;14238;49.496;8.154;2022-08-18T15:17:00;24.90;99.90
26595;DHT22;14238;49.496;8.154;2022-08-18T15:19:26;24.80;99.90
26595;DHT22;14238;49.496;8.154;2022-08-18T15:21:52;24.80;99.90
26595;DHT22;14238;49.496;8.154;2022-08-18T15:24:40;24.70;99.90
26595;DHT22;14238;49.496;8.154;2022-08-18T15:27:31;24.60;99.90
26595;DHT22;14238;49.496;8.154;2022-08-18T15:29:57;24.60;99.90
26595;DHT22;14238;49.496;8.154;2022-08-18T15:32:23;24.70;99.90
26595;DHT22;14238;49.496;8.154;2022-08-18T15:34:48;24.70;99.90
26595;DHT22;14238;49.496;8.154;2022-08-18T15:37:14;24.90;99.90
26595;DHT22;14238;49.496;8.154;2022-08-18T15:39:41;24.90;99.90
26595;DHT22;14238;49.496;8.154;2022-08-18T15:42:09;25.00;99.90
26595;DHT22;14238;49.496;8.154;2022-08-18T15:44:35;25.00;99.90
26595;DHT22;14238;49.496;8.154;2022-08-18T15:47:00;25.00;99.90
26595;DHT22;14238;49.496;8.154;2022-08-18T15:49:29;25.00;99.90
26595;DHT22;14238;49.496;8.154;2022-08-18T15:51:54;25.00;99.90
26595;DHT22;14238;49.496;8.154;2022-08-18T15:54:20;25.10;99.90
26595;DHT22;14238;49.496;8.154;2022-08-18T15:56:46;25.10;99.90
26595;DHT22;14238;49.496;8.154;2022-08-18T15:59:12;24.90;99.90
26595;DHT22;14238;49.496;8.154;2022-08-18T16:01:37;25.00;99.90
26595;DHT22;14238;49.496;8.154;2022-08-18T16:04:04;25.10;99.90
26595;DHT22;14238;49.496;8.154;2022-08-18T16:06:30;25.20;99.90
26595;DHT22;14238;49.496;8.154;2022-08-18T16:08:55;25.00;99.90
26595;DHT22;14238;49.496;8.154;2022-08-18T16:11:21;24.90;99.90
26595;DHT22;14238;49.496;8.154;2022-08-18T16:13:48;25.00;99.90
26595;DHT22;14238;49.496;8.154;2022-08-18T16:16:17;24.80;99.90
26595;DHT22;14238;49.496;8.154;2022-08-18T16:18:43;24.80;99.90
26595;DHT22;14238;49.496;8.154;2022-08-18T16:21:15;24.90;99.90
26595;DHT22;14238;49.496;8.154;2022-08-18T16:23:44;24.80;99.90
26595;DHT22;14238;49.496;8.154;2022-08-18T16:26:11;24.70;99.90
26595;DHT22;14238;49.496;8.154;2022-08-18T16:28:42;24.70;99.90
26595;DHT22;14238;49.496;8.154;2022-08-18T16:31:10;24.70;99.90
26595;DHT22;14238;49.496;8.154;2022-08-18T16:33:38;24.70;99.90
26595;DHT22;14238;49.496;8.154;2022-08-18T16:36:05;24.70;99.90
26595;DHT22;14238;49.496;8.154;2022-08-18T16:38:33;24.80;99.90
26595;DHT22;14238;49.496;8.154;2022-08-18T16:41:06;24.80;99.90
26595;DHT22;14238;49.496;8.154;2022-08-18T16:43:33;24.80;99.90
26595;DHT22;14238;49.496;8.154;2022-08-18T16:45:59;24.90;99.90
26595;DHT22;14238;49.496;8.154;2022-08-18T16:48:29;24.90;99.90
26595;DHT22;14238;49.496;8.154;2022-08-18T16:50:55;24.90;99.90
26595;DHT22;14238;49.496;8.154;2022-08-18T16:53:21;24.90;99.90
26595;DHT22;14238;49.496;8.154;2022-08-18T16:55:47;24.90;99.90
26595;DHT22;14238;49.496;8.154;2022-08-18T16:58:14;24.80;99.90
26595;DHT22;14238;49.496;8.154;2022-08-18T17:00:58;24.80;99.90
26595;DHT22;14238;49.496;8.154;2022-08-18T17:03:42;24.70;99.90
26595;DHT22;14238;49.496;8.154;2022-08-18T17:06:26;24.60;99.90
26595;DHT22;14238;49.496;8.154;2022-08-18T17:08:53;24.50;99.90
26595;DHT22;14238;49.496;8.154;2022-08-18T17:11:20;24.50;99.90
26595;DHT22;14238;49.496;8.154;2022-08-18T17:13:47;24.60;99.90
26595;DHT22;14238;49.496;8.154;2022-08-18T17:16:14;24.50;99.90
26595;DHT22;14238;49.496;8.154;2022-08-18T17:18:40;24.50;99.90
26595;DHT22;14238;49.496;8.154;2022-08-18T17:21:08;24.40;99.90
26595;DHT22;14238;49.496;8.154;2022-08-18T17:23:35;24.40;99.90
26595;DHT22;14238;49.496;8.154;2022-08-18T17:26:01;24.30;99.90
26595;DHT22;14238;49.496;8.154;2022-08-18T17:28:38;24.30;99.90
26595;DHT22;14238;49.496;8.154;2022-08-18T17:31:05;24.20;99.90
26595;DHT22;14238;49.496;8.154;2022-08-18T17:33:32;24.20;99.90
26595;DHT22;14238;49.496;8.154;2022-08-18T17:36:02;24.10;99.90
26595;DHT22;14238;49.496;8.154;2022-08-18T17:38:37;24.00;99.90
26595;DHT22;14238;49.496;8.154;2022-08-18T17:41:05;23.90;99.90
26595;DHT22;14238;49.496;8.154;2022-08-18T17:43:34;23.90;99.90
26595;DHT22;14238;49.496;8.154;2022-08-18T17:46:16;23.80;99.90
26595;DHT22;14238;49.496;8.154;2022-08-18T17:48:52;23.70;99.90
26595;DHT22;14238;49.496;8.154;2022-08-18T17:51:42;23.70;99.90
26595;DHT22;14238;49.496;8.154;2022-08-18T17:54:26;23.50;99.90
26595;DHT22;14238;49.496;8.154;2022-08-18T17:56:58;23.50;99.90
26595;DHT22;14238;49.496;8.154;2022-08-18T18:02:26;23.30;99.90
26595;DHT22;14238;49.496;8.154;2022-08-18T18:04:52;23.20;99.90
26595;DHT22;14238;49.496;8.154;2022-08-18T18:07:37;23.10;99.90
26595;DHT22;14238;49.496;8.154;2022-08-18T18:10:07;23.00;99.90